createdAt,value
2023-02-27T00:01:21.847Z,30.70
2023-02-27T00:03:49.070Z,30.60
2023-02-27T00:06:17.989Z,30.70
2023-02-27T00:08:45.119Z,31.00
2023-02-27T00:11:12.497Z,31.20
2023-02-27T00:13:40.154Z,31.00
2023-02-27T00:16:07.870Z,30.30
2023-02-27T00:18:35.591Z,30.60
2023-02-27T00:21:02.723Z,30.60
2023-02-27T00:23:30.178Z,30.80
2023-02-27T00:25:57.208Z,31.10
2023-02-27T00:28:24.278Z,31.40
2023-02-27T00:30:51.399Z,31.60
2023-02-27T00:33:21.146Z,31.70
2023-02-27T00:36:02.374Z,31.80
2023-02-27T00:38:29.929Z,31.70
2023-02-27T00:40:56.904Z,31.70
2023-02-27T00:43:24.051Z,31.70
2023-02-27T00:45:51.135Z,31.70
2023-02-27T00:48:18.233Z,31.70
2023-02-27T00:50:45.295Z,31.80
2023-02-27T00:53:12.350Z,31.80
2023-02-27T00:55:39.378Z,31.90
2023-02-27T00:58:06.659Z,31.90
2023-02-27T01:00:33.820Z,31.90
2023-02-27T01:03:00.985Z,32.00
2023-02-27T01:05:28.296Z,32.00
2023-02-27T01:07:55.505Z,32.10
2023-02-27T01:10:22.873Z,32.10
2023-02-27T01:12:50.263Z,32.10
2023-02-27T01:15:17.364Z,32.00
2023-02-27T01:17:44.672Z,31.90
2023-02-27T01:20:13.462Z,31.70
2023-02-27T01:22:41.191Z,31.80
2023-02-27T01:25:09.087Z,31.80
2023-02-27T01:27:36.783Z,31.80
2023-02-27T01:30:04.661Z,31.80
2023-02-27T01:32:31.869Z,31.80
2023-02-27T01:34:59.253Z,31.80
2023-02-27T01:37:26.860Z,31.90
2023-02-27T01:39:53.891Z,31.90
2023-02-27T01:42:24.153Z,31.90
2023-02-27T01:45:12.322Z,31.90
2023-02-27T01:47:51.956Z,32.00
2023-02-27T01:50:20.404Z,31.90
2023-02-27T01:52:54.965Z,31.90
2023-02-27T01:55:23.304Z,31.90
2023-02-27T01:57:51.990Z,31.70
2023-02-27T02:00:19.726Z,31.70
2023-02-27T02:03:17.500Z,31.60
2023-02-27T02:05:47.029Z,31.50
2023-02-27T02:08:22.127Z,31.30
2023-02-27T02:10:52.606Z,31.50
2023-02-27T02:13:21.630Z,31.60
2023-02-27T02:16:06.787Z,31.60
2023-02-27T02:19:01.176Z,31.70
2023-02-27T02:22:05.515Z,31.80
2023-02-27T02:25:02.788Z,31.90
2023-02-27T02:27:50.218Z,31.90
2023-02-27T02:30:36.743Z,32.00
2023-02-27T02:33:21.773Z,31.90
2023-02-27T02:36:15.100Z,31.90
2023-02-27T02:39:06.765Z,31.80
2023-02-27T02:41:52.319Z,31.50
2023-02-27T02:44:37.480Z,31.30
2023-02-27T02:47:42.092Z,31.20
2023-02-27T02:50:33.759Z,30.60
2023-02-27T02:53:17.151Z,31.00
2023-02-27T02:55:49.183Z,31.00
2023-02-27T02:58:27.030Z,31.20
2023-02-27T03:01:20.937Z,31.00
2023-02-27T03:04:06.418Z,30.30
2023-02-27T03:06:38.909Z,28.90
2023-02-27T03:09:30.181Z,28.80
2023-02-27T03:11:58.341Z,29.00
2023-02-27T03:14:38.006Z,30.00
2023-02-27T03:17:10.676Z,30.60
2023-02-27T03:19:54.093Z,30.40
2023-02-27T03:22:28.345Z,30.50
2023-02-27T03:24:59.232Z,30.60
2023-02-27T03:27:34.956Z,30.70
2023-02-27T03:30:08.607Z,29.90
2023-02-27T03:32:38.633Z,29.50
2023-02-27T03:35:07.645Z,29.70
2023-02-27T03:37:45.706Z,30.00
2023-02-27T03:40:41.323Z,30.10
2023-02-27T03:43:50.466Z,29.40
2023-02-27T03:46:25.625Z,29.80
2023-02-27T03:48:52.730Z,30.10
2023-02-27T03:51:25.192Z,30.30
2023-02-27T03:54:11.531Z,30.40
2023-02-27T03:56:53.314Z,30.70
2023-02-27T03:59:20.572Z,31.10
2023-02-27T04:01:48.130Z,31.20
2023-02-27T04:04:16.791Z,31.40
2023-02-27T04:07:12.695Z,31.40
2023-02-27T04:10:06.095Z,31.60
2023-02-27T04:13:07.274Z,31.60
2023-02-27T04:16:01.706Z,31.70
2023-02-27T04:18:58.193Z,31.40
2023-02-27T04:21:25.827Z,31.40
2023-02-27T04:24:34.555Z,31.40
2023-02-27T04:27:24.419Z,31.50
2023-02-27T04:30:23.522Z,31.60
2023-02-27T04:32:55.340Z,31.70
2023-02-27T04:35:51.221Z,31.60
2023-02-27T04:38:51.884Z,31.40
2023-02-27T04:41:25.881Z,31.40
2023-02-27T04:43:55.088Z,31.60
2023-02-27T04:46:26.052Z,31.60
2023-02-27T04:49:00.369Z,31.60
2023-02-27T04:51:40.494Z,31.70
2023-02-27T04:54:14.531Z,31.70
2023-02-27T04:56:47.792Z,31.80
2023-02-27T04:59:27.264Z,31.80
2023-02-27T05:02:02.598Z,31.60
2023-02-27T05:04:35.794Z,31.40
2023-02-27T05:07:06.296Z,31.10
2023-02-27T05:09:41.004Z,31.10
2023-02-27T05:12:25.677Z,30.70
2023-02-27T05:15:22.325Z,30.50
2023-02-27T05:17:59.953Z,30.60
2023-02-27T05:20:53.068Z,30.90
2023-02-27T05:23:48.008Z,31.20
2023-02-27T05:26:36.943Z,31.40
2023-02-27T05:29:22.100Z,31.60
2023-02-27T05:31:54.932Z,31.50
2023-02-27T05:34:32.699Z,31.00
2023-02-27T05:37:16.696Z,29.80
2023-02-27T05:39:46.385Z,29.10
2023-02-27T05:42:25.004Z,29.10
2023-02-27T05:44:59.549Z,29.50
2023-02-27T05:47:31.432Z,30.00
2023-02-27T05:50:13.532Z,30.40
2023-02-27T05:52:43.148Z,30.70
2023-02-27T05:55:21.256Z,30.70
2023-02-27T05:57:53.600Z,29.40
2023-02-27T06:00:44.376Z,29.00
2023-02-27T06:03:12.239Z,28.60
2023-02-27T06:05:42.026Z,29.40
2023-02-27T06:08:09.784Z,30.10
2023-02-27T06:10:37.253Z,30.60
2023-02-27T06:13:04.311Z,30.60
2023-02-27T06:15:31.450Z,31.00
2023-02-27T06:17:58.513Z,31.20
2023-02-27T06:20:25.552Z,31.40
2023-02-27T06:22:52.668Z,31.50
2023-02-27T06:25:20.017Z,31.70
2023-02-27T06:27:47.076Z,31.80
2023-02-27T06:30:14.701Z,31.60
2023-02-27T06:32:41.707Z,31.40
2023-02-27T06:35:09.270Z,31.30
2023-02-27T06:37:36.584Z,31.30
2023-02-27T06:40:05.937Z,31.40
2023-02-27T06:42:33.239Z,31.50
2023-02-27T06:45:00.430Z,31.60
2023-02-27T06:47:27.496Z,31.80
2023-02-27T06:49:54.553Z,31.90
2023-02-27T06:52:21.640Z,32.00
2023-02-27T06:54:48.648Z,32.00
2023-02-27T06:57:16.096Z,31.70
2023-02-27T06:59:44.549Z,31.80
2023-02-27T07:02:13.809Z,31.80
2023-02-27T07:04:41.221Z,31.90
2023-02-27T07:07:32.814Z,31.90
2023-02-27T07:09:55.777Z,31.70
2023-02-27T07:12:22.937Z,31.50
2023-02-27T07:14:49.992Z,31.70
2023-02-27T07:17:17.034Z,31.90
2023-02-27T07:19:44.158Z,32.20
2023-02-27T07:22:11.413Z,32.30
2023-02-27T07:24:38.473Z,32.40
2023-02-27T07:27:05.531Z,32.10
2023-02-27T07:29:32.714Z,32.20
2023-02-27T07:32:01.552Z,32.20
2023-02-27T07:34:28.633Z,31.40
2023-02-27T07:36:55.756Z,30.90
2023-02-27T07:39:22.770Z,30.90
2023-02-27T07:41:49.801Z,31.10
2023-02-27T07:44:16.884Z,31.40
2023-02-27T07:46:44.881Z,31.60
2023-02-27T07:49:12.153Z,31.50
2023-02-27T07:51:39.560Z,31.80
2023-02-27T07:54:06.574Z,32.10
2023-02-27T07:56:33.824Z,32.50
2023-02-27T07:59:01.133Z,33.00
2023-02-27T08:01:28.277Z,33.30
2023-02-27T08:03:56.605Z,33.70
2023-02-27T08:06:24.144Z,34.50
2023-02-27T08:08:51.912Z,35.30
2023-02-27T08:11:19.783Z,36.10
2023-02-27T08:14:02.958Z,36.90
2023-02-27T08:16:31.744Z,37.40
2023-02-27T08:18:59.710Z,37.60
2023-02-27T08:21:27.597Z,37.70
2023-02-27T08:23:55.155Z,37.60
2023-02-27T08:26:22.563Z,37.50
2023-02-27T08:28:49.626Z,37.30
2023-02-27T08:31:16.909Z,37.20
2023-02-27T08:33:44.166Z,37.00
2023-02-27T08:36:11.235Z,36.80
2023-02-27T08:38:38.477Z,36.70
2023-02-27T08:41:05.936Z,36.60
2023-02-27T08:43:33.218Z,37.00
2023-02-27T08:46:00.367Z,37.30
2023-02-27T08:48:27.407Z,38.00
2023-02-27T08:50:56.228Z,39.00
2023-02-27T08:53:24.925Z,40.00
2023-02-27T08:55:52.340Z,40.70
2023-02-27T08:58:19.804Z,41.40
2023-02-27T09:00:47.904Z,41.90
2023-02-27T09:03:15.214Z,42.30
2023-02-27T09:05:43.090Z,42.40
2023-02-27T09:08:10.274Z,42.10
2023-02-27T09:10:37.399Z,41.60
2023-02-27T09:13:04.471Z,41.20
2023-02-27T09:15:32.690Z,40.80
2023-02-27T09:18:03.183Z,40.40
2023-02-27T09:20:37.020Z,39.90
2023-02-27T09:23:04.695Z,39.50
2023-02-27T09:25:31.996Z,39.40
2023-02-27T09:27:59.505Z,39.10
2023-02-27T09:30:27.521Z,38.90
2023-02-27T09:32:54.737Z,38.90
2023-02-27T09:35:22.126Z,39.30
2023-02-27T09:37:54.716Z,39.30
2023-02-27T09:40:29.051Z,38.80
2023-02-27T09:43:01.499Z,38.80
2023-02-27T09:45:32.230Z,38.20
2023-02-27T09:48:01.226Z,38.00
2023-02-27T09:50:38.810Z,37.80
2023-02-27T09:53:27.134Z,37.10
2023-02-27T09:56:23.377Z,36.50
2023-02-27T09:59:02.330Z,36.80
2023-02-27T10:01:45.304Z,36.10
2023-02-27T10:04:31.772Z,35.70
2023-02-27T10:07:04.223Z,34.70
2023-02-27T10:09:49.774Z,33.80
2023-02-27T10:12:34.645Z,33.70
2023-02-27T10:15:15.239Z,34.00
2023-02-27T10:18:19.879Z,34.10
2023-02-27T10:20:58.937Z,33.50
2023-02-27T10:23:48.860Z,33.80
2023-02-27T10:26:31.524Z,34.30
2023-02-27T10:29:02.851Z,34.60
2023-02-27T10:31:33.892Z,34.40
2023-02-27T10:34:01.216Z,33.70
2023-02-27T10:36:34.033Z,33.20
2023-02-27T10:39:07.701Z,33.10
2023-02-27T10:41:37.956Z,33.20
2023-02-27T10:44:05.352Z,33.70
2023-02-27T10:46:36.528Z,34.00
2023-02-27T10:49:19.153Z,34.20
2023-02-27T10:51:53.498Z,35.00
2023-02-27T10:54:27.003Z,36.00
2023-02-27T10:57:01.034Z,37.10
2023-02-27T10:59:35.091Z,38.30
2023-02-27T11:02:04.012Z,38.40
2023-02-27T11:04:35.261Z,38.30
2023-02-27T11:07:06.401Z,39.80
2023-02-27T11:09:35.631Z,39.90
2023-02-27T11:12:26.944Z,40.40
2023-02-27T11:15:02.483Z,39.90
2023-02-27T11:17:35.414Z,38.90
2023-02-27T11:20:07.349Z,37.40
2023-02-27T11:22:34.917Z,36.40
2023-02-27T11:25:20.491Z,35.70
2023-02-27T11:27:48.902Z,35.00
2023-02-27T11:30:31.953Z,34.40
2023-02-27T11:33:01.657Z,34.30
2023-02-27T11:35:34.787Z,33.90
2023-02-27T11:38:18.188Z,33.70
2023-02-27T11:41:11.970Z,33.60
2023-02-27T11:43:52.599Z,33.70
2023-02-27T11:46:41.695Z,34.10
2023-02-27T11:49:41.800Z,34.10
2023-02-27T11:52:27.374Z,34.70
2023-02-27T11:55:01.813Z,35.50
2023-02-27T11:57:41.225Z,36.80
2023-02-27T12:00:23.811Z,37.80
2023-02-27T12:03:16.360Z,37.80
2023-02-27T12:06:00.019Z,37.10
2023-02-27T12:08:57.748Z,36.70
2023-02-27T12:12:21.023Z,35.20
2023-02-27T12:15:01.089Z,34.50
2023-02-27T12:17:37.158Z,34.40
2023-02-27T12:20:24.875Z,34.10
2023-02-27T12:22:54.347Z,33.90
2023-02-27T12:25:47.046Z,33.10
2023-02-27T12:28:28.187Z,32.80
2023-02-27T12:31:06.326Z,33.20
2023-02-27T12:33:57.794Z,33.00
2023-02-27T12:36:25.119Z,33.00
2023-02-27T12:38:52.627Z,33.10
2023-02-27T12:41:41.874Z,33.40
2023-02-27T12:44:37.605Z,33.10
2023-02-27T12:47:27.201Z,32.50
2023-02-27T12:50:17.594Z,32.40
2023-02-27T12:53:01.327Z,32.80
2023-02-27T12:55:41.535Z,32.70
2023-02-27T12:58:23.939Z,32.60
2023-02-27T13:01:21.154Z,32.80
2023-02-27T13:03:55.713Z,32.80
2023-02-27T13:06:48.603Z,33.50
2023-02-27T13:09:46.929Z,34.50
2023-02-27T13:12:29.775Z,35.60
2023-02-27T13:15:19.552Z,35.70
2023-02-27T13:17:49.876Z,36.50
2023-02-27T13:20:22.855Z,37.10
2023-02-27T13:23:04.688Z,37.90
2023-02-27T13:25:34.142Z,37.10
2023-02-27T13:28:07.018Z,36.00
2023-02-27T13:30:39.634Z,35.20
2023-02-27T13:33:25.361Z,34.80
2023-02-27T13:36:05.580Z,33.80
2023-02-27T13:38:47.725Z,33.80
2023-02-27T13:41:20.997Z,34.10
2023-02-27T13:43:52.834Z,34.10
2023-02-27T13:46:25.836Z,33.90
2023-02-27T13:49:28.120Z,34.00
2023-02-27T13:51:58.813Z,34.00
2023-02-27T13:54:40.228Z,34.00
2023-02-27T13:57:22.514Z,33.50
2023-02-27T13:59:58.282Z,32.90
2023-02-27T14:02:56.534Z,32.90
2023-02-27T14:05:35.650Z,33.40
2023-02-27T14:08:05.505Z,33.80
2023-02-27T14:10:33.102Z,34.20
2023-02-27T14:13:01.978Z,34.80
2023-02-27T14:15:32.703Z,34.90
2023-02-27T14:18:13.936Z,35.20
2023-02-27T14:20:42.926Z,35.60
2023-02-27T14:23:21.569Z,35.90
2023-02-27T14:25:54.176Z,35.90
2023-02-27T14:28:51.976Z,36.40
2023-02-27T14:31:28.603Z,36.40
2023-02-27T14:34:00.102Z,36.40
2023-02-27T14:36:29.964Z,36.70
2023-02-27T14:38:59.680Z,36.90
2023-02-27T14:41:51.717Z,36.00
2023-02-27T14:44:28.711Z,35.60
2023-02-27T14:46:57.750Z,35.30
2023-02-27T14:49:36.078Z,35.10
2023-02-27T14:52:26.962Z,34.80
2023-02-27T14:55:05.966Z,34.10
2023-02-27T14:57:33.321Z,33.70
2023-02-27T15:00:00.376Z,33.20
2023-02-27T15:02:35.875Z,33.40
2023-02-27T15:05:02.966Z,33.00
2023-02-27T15:07:33.222Z,33.10
2023-02-27T15:10:09.336Z,33.00
2023-02-27T15:12:40.094Z,32.70
2023-02-27T15:15:09.913Z,33.10
2023-02-27T15:17:42.914Z,33.10
2023-02-27T15:20:30.189Z,33.00
2023-02-27T15:23:03.030Z,33.30
2023-02-27T15:25:40.172Z,33.50
2023-02-27T15:28:23.833Z,33.40
2023-02-27T15:30:52.215Z,33.60
2023-02-27T15:33:24.985Z,34.10
2023-02-27T15:35:52.208Z,34.40
2023-02-27T15:38:27.504Z,34.60
2023-02-27T15:40:55.966Z,34.50
2023-02-27T15:43:25.276Z,34.40
2023-02-27T15:45:53.550Z,34.10
2023-02-27T15:48:21.828Z,33.50
2023-02-27T15:51:01.201Z,33.30
2023-02-27T15:53:30.881Z,33.10
2023-02-27T15:56:01.810Z,33.10
2023-02-27T15:58:35.599Z,33.10
2023-02-27T16:01:07.102Z,33.00
2023-02-27T16:03:46.672Z,33.00
2023-02-27T16:06:23.561Z,33.10
2023-02-27T16:08:59.555Z,32.90
2023-02-27T16:11:29.889Z,32.80
2023-02-27T16:13:57.951Z,32.80
2023-02-27T16:16:36.260Z,32.40
2023-02-27T16:19:27.032Z,32.30
2023-02-27T16:22:16.169Z,32.50
2023-02-27T16:24:44.156Z,32.40
2023-02-27T16:27:25.957Z,32.40
2023-02-27T16:30:02.695Z,32.10
2023-02-27T16:32:36.397Z,32.20
2023-02-27T16:35:05.975Z,32.30
2023-02-27T16:37:40.605Z,32.20
2023-02-27T16:40:34.150Z,32.00
2023-02-27T16:43:01.659Z,32.00
2023-02-27T16:45:29.727Z,32.20
2023-02-27T16:47:58.852Z,31.80
2023-02-27T16:50:33.871Z,31.90
2023-02-27T16:53:01.441Z,32.00
2023-02-27T16:55:28.694Z,32.00
2023-02-27T16:57:56.221Z,32.10
2023-02-27T17:00:23.373Z,32.00
2023-02-27T17:02:51.283Z,32.10
2023-02-27T17:05:19.153Z,32.00
2023-02-27T17:07:46.913Z,32.00
2023-02-27T17:10:22.383Z,31.90
2023-02-27T17:12:49.952Z,31.90
2023-02-27T17:15:17.812Z,31.90
2023-02-27T17:17:45.366Z,32.00
2023-02-27T17:20:14.460Z,32.00
2023-02-27T17:22:44.606Z,31.90
2023-02-27T17:25:12.872Z,31.80
2023-02-27T17:27:41.533Z,31.90
2023-02-27T17:30:09.950Z,31.80
2023-02-27T17:32:39.006Z,31.90
2023-02-27T17:35:07.819Z,32.00
2023-02-27T17:37:38.478Z,32.00
2023-02-27T17:40:08.390Z,32.00
2023-02-27T17:42:39.490Z,31.80
2023-02-27T17:45:07.344Z,31.80
2023-02-27T17:47:35.127Z,31.80
2023-02-27T17:50:02.780Z,31.80
2023-02-27T17:52:30.182Z,31.80
2023-02-27T17:54:57.354Z,31.80
2023-02-27T17:57:24.377Z,31.80
2023-02-27T17:59:51.484Z,31.80
2023-02-27T18:02:19.527Z,31.90
2023-02-27T18:04:47.420Z,31.90
2023-02-27T18:07:14.549Z,31.90
2023-02-27T18:09:42.138Z,31.50
2023-02-27T18:12:09.184Z,31.50
2023-02-27T18:14:36.481Z,31.40
2023-02-27T18:17:03.745Z,31.50
2023-02-27T18:19:32.562Z,31.50
2023-02-27T18:21:59.877Z,31.30
2023-02-27T18:24:28.521Z,31.40
2023-02-27T18:26:55.770Z,31.40
2023-02-27T18:29:23.025Z,31.40
2023-02-27T18:31:53.631Z,31.50
2023-02-27T18:34:21.819Z,31.40
2023-02-27T18:36:49.255Z,31.40
2023-02-27T18:39:17.969Z,31.40
2023-02-27T18:41:45.143Z,31.10
2023-02-27T18:44:12.556Z,31.10
2023-02-27T18:46:40.378Z,31.00
2023-02-27T18:49:07.885Z,31.10
2023-02-27T18:51:35.366Z,31.10
2023-02-27T18:54:04.548Z,31.20
2023-02-27T18:56:33.012Z,31.30
2023-02-27T18:59:05.419Z,31.30
2023-02-27T19:01:36.246Z,31.30
2023-02-27T19:04:07.379Z,31.30
2023-02-27T19:06:39.048Z,31.20
2023-02-27T19:09:07.658Z,31.10
2023-02-27T19:11:35.877Z,31.20
2023-02-27T19:14:05.297Z,31.20
2023-02-27T19:16:33.148Z,31.20
2023-02-27T19:19:01.931Z,31.20
2023-02-27T19:21:29.568Z,31.10
2023-02-27T19:23:57.161Z,31.20
2023-02-27T19:26:25.187Z,31.20
2023-02-27T19:28:56.350Z,31.20
2023-02-27T19:31:25.592Z,31.20
2023-02-27T19:33:52.765Z,31.20
2023-02-27T19:36:21.984Z,31.30
2023-02-27T19:38:50.272Z,31.30
2023-02-27T19:41:18.910Z,31.20
2023-02-27T19:43:47.467Z,31.10
2023-02-27T19:46:22.515Z,31.10
2023-02-27T19:48:51.844Z,31.10
2023-02-27T19:51:19.993Z,31.10
2023-02-27T19:53:48.762Z,31.00
2023-02-27T19:56:19.292Z,31.10
2023-02-27T19:58:50.815Z,30.90
2023-02-27T20:01:32.163Z,30.90
2023-02-27T20:04:01.582Z,30.90
2023-02-27T20:06:32.333Z,30.80
2023-02-27T20:09:00.432Z,30.80
2023-02-27T20:11:34.751Z,30.70
2023-02-27T20:14:03.551Z,30.50
2023-02-27T20:16:36.087Z,30.50
2023-02-27T20:19:04.595Z,30.50
2023-02-27T20:21:34.011Z,30.50
2023-02-27T20:24:01.797Z,30.50
2023-02-27T20:26:32.323Z,30.50
2023-02-27T20:29:03.352Z,30.50
2023-02-27T20:31:31.381Z,30.60
2023-02-27T20:34:01.300Z,30.50
2023-02-27T20:36:29.103Z,30.60
2023-02-27T20:38:56.238Z,30.60
2023-02-27T20:41:29.031Z,30.50
2023-02-27T20:43:56.883Z,30.60
2023-02-27T20:46:27.976Z,30.60
2023-02-27T20:49:00.466Z,30.60
2023-02-27T20:51:31.270Z,30.60
2023-02-27T20:53:59.765Z,30.60
2023-02-27T20:56:33.358Z,30.50
2023-02-27T20:59:03.788Z,30.40
2023-02-27T21:01:31.596Z,30.30
2023-02-27T21:04:00.721Z,30.30
2023-02-27T21:06:27.946Z,30.40
2023-02-27T21:08:58.320Z,30.30
2023-02-27T21:11:28.373Z,30.40
2023-02-27T21:13:57.798Z,30.50
2023-02-27T21:16:26.237Z,30.40
2023-02-27T21:18:56.802Z,30.40
2023-02-27T21:21:30.655Z,30.40
2023-02-27T21:23:58.871Z,30.40
2023-02-27T21:26:29.181Z,30.30
2023-02-27T21:29:02.262Z,30.30
2023-02-27T21:31:32.273Z,30.30
2023-02-27T21:34:01.624Z,30.30
2023-02-27T21:36:32.214Z,30.40
2023-02-27T21:39:01.791Z,30.30
2023-02-27T21:41:30.652Z,30.30
2023-02-27T21:44:03.204Z,30.30
2023-02-27T21:46:30.809Z,30.30
2023-02-27T21:48:58.298Z,30.30
2023-02-27T21:51:38.856Z,30.40
2023-02-27T21:54:08.106Z,30.30
2023-02-27T21:56:35.240Z,30.20
2023-02-27T21:59:02.725Z,30.20
2023-02-27T22:01:31.003Z,30.30
2023-02-27T22:03:58.480Z,30.40
2023-02-27T22:06:27.993Z,30.40
2023-02-27T22:08:57.319Z,30.40
2023-02-27T22:11:26.593Z,30.40
2023-02-27T22:13:54.152Z,30.40
2023-02-27T22:16:21.723Z,30.40
2023-02-27T22:18:49.742Z,30.40
2023-02-27T22:21:22.870Z,30.40
2023-02-27T22:23:52.223Z,30.40
2023-02-27T22:26:22.938Z,30.40
2023-02-27T22:28:50.649Z,30.40
2023-02-27T22:31:21.072Z,30.20
2023-02-27T22:33:51.151Z,30.20
2023-02-27T22:36:24.089Z,30.20
2023-02-27T22:38:52.915Z,30.20
2023-02-27T22:41:24.331Z,30.10
2023-02-27T22:43:52.988Z,30.00
2023-02-27T22:46:44.562Z,30.00
2023-02-27T22:49:22.306Z,30.00
2023-02-27T22:51:51.723Z,29.80
2023-02-27T22:54:21.652Z,29.90
2023-02-27T22:56:53.524Z,29.90
2023-02-27T22:59:22.299Z,30.00
2023-02-27T23:01:50.533Z,29.70
2023-02-27T23:04:17.879Z,29.70
2023-02-27T23:06:45.381Z,29.60
2023-02-27T23:09:20.030Z,29.40
2023-02-27T23:11:47.468Z,29.20
2023-02-27T23:14:14.916Z,29.00
2023-02-27T23:16:46.746Z,29.30
2023-02-27T23:19:19.966Z,29.50
2023-02-27T23:21:47.674Z,29.60
2023-02-27T23:24:17.502Z,29.70
2023-02-27T23:26:50.418Z,29.60
2023-02-27T23:29:17.937Z,29.30
2023-02-27T23:31:45.275Z,29.30
2023-02-27T23:34:12.674Z,29.40
2023-02-27T23:36:40.870Z,29.20
2023-02-27T23:39:08.979Z,28.90
2023-02-27T23:41:36.219Z,29.20
2023-02-27T23:44:21.824Z,29.40
2023-02-27T23:46:49.863Z,29.00
2023-02-27T23:49:17.194Z,29.00
2023-02-27T23:51:44.572Z,29.10
2023-02-27T23:54:11.912Z,29.30
2023-02-27T23:56:39.067Z,29.40
2023-02-27T23:59:08.198Z,29.50
